East Corinth, ME

12:01 AM EST on January 25, 2015 (GMT -0500)
KMEGARLA2 | Change Station
CLOSE
Current Station
Personal Weather Station
Location: Garland, ME
Elevation: 410 ft
Nearby Weather Stations
Active Advisory: Winter Weather Advisory Active Notice: Public Information Statement

Elev 410 ft 45.02 °N, 69.13 °W | Updated 38 seconds ago

Overcast
Overcast
29.7 °F
Feels Like 23 °F
N
7.0
Wind Variable Wind from North
Gusts 14.0 mph

Today
High -- | Low -- °F
--% Chance of Precip.
Yesterday
High -- | Low -- °F
Precip. -- in
7:03 AM 4:33 PM
Waxing Crescent, 28% visible
Pressure 29.10 in
Visibility 10.0 miles
Clouds Mostly Cloudy 7000 ft
Windchill 23 °F
Dew Point 23 °F
Humidity 77%
Rainfall 0.00 in
Snow Depth Not available.
UV 0 out of 12
Pollen .10 out of 12
Air Quality Not available.
Flu Activity Not available.
METAR KBGR 250453Z 28005KT 10SM BKN070 M03/M06 A2909 RMK AO2 SLP852 T10281061 410111094

More Conditions Fewer Conditions

Pressure 29.10 in
Visibility 10.0 miles
Clouds Mostly Cloudy 7000 ft
Windchill 23 °F
Dew Point 23 °F
Humidity 77%
Rainfall 0.00 in
Snow Depth Not available.
UV 0 out of 12
Pollen .10 out of 12
Air Quality Not available.
Flu Activity Not available.
METAR KBGR 250453Z 28005KT 10SM BKN070 M03/M06 A2909 RMK AO2 SLP852 T10281061 410111094

More Conditions Fewer Conditions

10-Day Weather Forecast

Almanac

Astronomy

Jan. 25, 2015 Rise Set
Actual Time
Civil Twilight
Nautical Twilight
Astronomical Twilight
Moon
Length of Visible Light
Length of Day
Tomorrow will be .
, % of the Moon is Illuminated

Today's Extremes

State Highs State Lows

Community

WunderPhotos

Upload Photos

1,789,840 photos uploaded!

WunderBlogs® & News

Nearby

Air Quality

  Air Quality AQ Index Pollutant
Not available.

Snow Depth

Station Depth Elevation

Earthquake Activity

City Distance Mag. Time & Date
Minimum magnitude displayed is 2.5.

Coastal Water Temperatures

Place Temperature

Nearby Weather Stations